createdAt,value
2023-03-13T00:00:08.119Z,970.10
2023-03-13T00:00:38.206Z,970.10
2023-03-13T00:01:08.883Z,970.10
2023-03-13T00:01:41.827Z,970.10
2023-03-13T00:02:12.089Z,969.79
2023-03-13T00:02:43.063Z,969.79
2023-03-13T00:03:13.808Z,970.00
2023-03-13T00:03:45.770Z,970.00
2023-03-13T00:04:16.094Z,970.00
2023-03-13T00:05:05.132Z,970.10
2023-03-13T00:05:32.710Z,970.10
2023-03-13T00:05:48.229Z,970.00
2023-03-13T00:06:19.284Z,970.00
2023-03-13T00:06:51.430Z,970.10
2023-03-13T00:07:23.773Z,970.10
2023-03-13T00:07:53.555Z,969.79
2023-03-13T00:08:23.987Z,969.79
2023-03-13T00:08:54.901Z,969.79
2023-03-13T00:09:25.536Z,969.79
2023-03-13T00:09:56.685Z,969.79
2023-03-13T00:10:27.373Z,969.79
2023-03-13T00:10:58.805Z,970.00
2023-03-13T00:11:30.462Z,970.00
2023-03-13T00:12:01.932Z,970.00
2023-03-13T00:12:32.635Z,970.00
2023-03-13T00:13:03.530Z,970.00
2023-03-13T00:13:34.168Z,970.00
2023-03-13T00:14:04.788Z,969.89
2023-03-13T00:14:36.355Z,969.89
2023-03-13T00:15:07.297Z,969.89
2023-03-13T00:15:37.841Z,969.89
2023-03-13T00:16:08.391Z,970.00
2023-03-13T00:16:39.408Z,970.00
2023-03-13T00:17:12.324Z,969.89
2023-03-13T00:17:42.934Z,969.89
2023-03-13T00:18:13.402Z,969.69
2023-03-13T00:18:44.395Z,969.69
2023-03-13T00:19:15.340Z,969.89
2023-03-13T00:19:45.827Z,969.89
2023-03-13T00:20:16.753Z,969.89
2023-03-13T00:20:47.679Z,969.89
2023-03-13T00:21:18.617Z,969.89
2023-03-13T00:21:49.591Z,969.69
2023-03-13T00:22:22.761Z,969.69
2023-03-13T00:23:08.511Z,969.89
2023-03-13T00:23:23.518Z,969.89
2023-03-13T00:23:54.650Z,970.00
2023-03-13T00:24:25.225Z,970.00
2023-03-13T00:24:56.457Z,970.00
2023-03-13T00:25:27.097Z,970.00
2023-03-13T00:26:28.505Z,969.89
2023-03-13T00:26:59.583Z,970.00
2023-03-13T00:27:30.980Z,970.00
2023-03-13T00:28:01.331Z,969.89
2023-03-13T00:28:34.114Z,969.89
2023-03-13T00:29:04.484Z,969.89
2023-03-13T00:29:35.834Z,969.89
2023-03-13T00:30:07.061Z,969.79
2023-03-13T00:30:36.868Z,969.79
2023-03-13T00:31:07.251Z,970.00
2023-03-13T00:31:39.362Z,970.00
2023-03-13T00:32:09.592Z,969.69
2023-03-13T00:32:42.874Z,969.69
2023-03-13T00:33:12.312Z,969.79
2023-03-13T00:33:43.987Z,969.79
2023-03-13T00:34:14.330Z,970.00
2023-03-13T00:34:45.773Z,970.00
2023-03-13T00:35:16.867Z,969.79
2023-03-13T00:35:47.102Z,969.89
2023-03-13T00:36:18.103Z,969.89
2023-03-13T00:36:48.414Z,969.79
2023-03-13T00:37:37.131Z,969.79
2023-03-13T00:37:50.654Z,969.89
2023-03-13T00:38:22.369Z,969.89
2023-03-13T00:38:52.874Z,969.69
2023-03-13T00:39:24.815Z,969.69
2023-03-13T00:39:56.081Z,969.79
2023-03-13T00:40:44.699Z,969.79
2023-03-13T00:40:57.086Z,969.79
2023-03-13T00:41:28.085Z,969.79
2023-03-13T00:41:58.564Z,969.89
2023-03-13T00:42:37.301Z,969.89
2023-03-13T00:43:08.170Z,969.79
2023-03-13T00:43:32.621Z,969.79
2023-03-13T00:44:04.029Z,969.69
2023-03-13T00:44:33.152Z,969.69
2023-03-13T00:45:05.445Z,969.79
2023-03-13T00:45:37.303Z,969.79
2023-03-13T00:46:07.187Z,969.79
2023-03-13T00:46:37.266Z,969.79
2023-03-13T00:47:08.350Z,969.59
2023-03-13T00:47:39.248Z,969.59
2023-03-13T00:48:10.204Z,969.59
2023-03-13T00:48:43.354Z,969.59
2023-03-13T00:49:13.798Z,969.59
2023-03-13T00:49:43.145Z,969.59
2023-03-13T00:50:15.768Z,969.79
2023-03-13T00:50:46.309Z,969.59
2023-03-13T00:51:16.172Z,969.59
2023-03-13T00:51:48.490Z,969.69
2023-03-13T00:52:38.041Z,969.69
2023-03-13T00:52:49.981Z,969.59
2023-03-13T00:53:22.605Z,969.59
2023-03-13T00:53:51.274Z,969.69
2023-03-13T00:54:22.232Z,969.69
2023-03-13T00:54:55.410Z,969.69
2023-03-13T00:55:27.208Z,969.69
2023-03-13T00:55:55.410Z,969.59
2023-03-13T00:56:28.326Z,969.59
2023-03-13T00:56:58.623Z,969.59
2023-03-13T00:57:28.245Z,969.59
2023-03-13T00:57:59.262Z,969.69
2023-03-13T00:58:49.925Z,969.59
2023-03-13T00:59:01.287Z,969.59
2023-03-13T00:59:33.437Z,969.59
2023-03-13T01:00:03.868Z,969.59
2023-03-13T01:01:01.593Z,969.59
2023-03-13T01:01:06.141Z,969.59
2023-03-13T01:01:37.742Z,969.59
2023-03-13T01:02:07.326Z,969.59
2023-03-13T01:02:38.385Z,969.59
2023-03-13T01:03:10.080Z,969.49
2023-03-13T01:03:40.893Z,969.49
2023-03-13T01:04:12.680Z,969.59
2023-03-13T01:04:43.000Z,969.59
2023-03-13T01:05:13.894Z,969.69
2023-03-13T01:05:45.233Z,969.69
2023-03-13T01:06:16.571Z,969.49
2023-03-13T01:06:47.092Z,969.59
2023-03-13T01:07:17.673Z,969.59
2023-03-13T01:07:48.610Z,969.59
2023-03-13T01:08:19.642Z,969.59
2023-03-13T01:08:50.638Z,969.59
2023-03-13T01:11:14.904Z,969.49
2023-03-13T01:11:26.590Z,969.39
2023-03-13T01:11:56.353Z,969.49
2023-03-13T01:12:27.790Z,969.49
2023-03-13T01:12:59.500Z,969.39
2023-03-13T01:13:30.291Z,969.39
2023-03-13T01:14:01.448Z,969.28
2023-03-13T01:15:48.211Z,969.28
2023-03-13T01:16:05.508Z,969.28
2023-03-13T01:16:35.935Z,969.28
2023-03-13T01:17:06.668Z,969.59
2023-03-13T01:17:37.989Z,969.59
2023-03-13T01:18:08.789Z,969.49
2023-03-13T01:18:39.375Z,969.49
2023-03-13T01:19:13.154Z,969.49
2023-03-13T01:19:41.583Z,969.49
2023-03-13T01:20:14.155Z,969.59
2023-03-13T01:20:46.118Z,969.59
2023-03-13T01:21:20.020Z,969.39
2023-03-13T01:21:46.643Z,969.59
2023-03-13T01:22:17.135Z,969.59
2023-03-13T01:22:47.859Z,969.49
2023-03-13T01:23:18.592Z,969.49
2023-03-13T01:23:50.079Z,969.28
2023-03-13T01:24:20.844Z,969.28
2023-03-13T01:24:51.849Z,969.39
2023-03-13T01:25:25.511Z,969.39
2023-03-13T01:25:56.253Z,969.39
2023-03-13T01:26:28.224Z,969.39
2023-03-13T01:26:58.016Z,969.18
2023-03-13T01:27:28.531Z,969.18
2023-03-13T01:27:59.967Z,969.49
2023-03-13T01:28:31.466Z,969.49
2023-03-13T01:29:00.301Z,969.39
2023-03-13T01:29:30.726Z,969.39
2023-03-13T01:30:02.975Z,969.28
2023-03-13T01:30:34.888Z,969.28
2023-03-13T01:31:07.657Z,969.28
2023-03-13T01:31:36.752Z,969.28
2023-03-13T01:32:06.908Z,969.28
2023-03-13T01:32:37.521Z,969.28
2023-03-13T01:34:25.733Z,969.18
2023-03-13T01:34:57.947Z,969.11
2023-03-13T01:35:12.949Z,969.01
2023-03-13T01:35:46.775Z,969.01
2023-03-13T01:37:05.917Z,969.11
2023-03-13T01:37:17.537Z,969.11
2023-03-13T01:37:54.715Z,969.28
2023-03-13T01:38:23.295Z,969.28
2023-03-13T01:38:54.071Z,969.01
2023-03-13T01:39:20.031Z,969.01
2023-03-13T01:39:53.272Z,968.91
2023-03-13T01:40:24.900Z,968.91
2023-03-13T01:40:53.973Z,969.11
2023-03-13T01:41:24.931Z,969.11
2023-03-13T01:41:55.794Z,969.11
2023-03-13T01:42:57.063Z,968.91
2023-03-13T01:43:28.516Z,968.91
2023-03-13T01:43:59.310Z,969.11
2023-03-13T01:44:29.948Z,969.11
2023-03-13T01:45:03.642Z,969.01
2023-03-13T01:45:34.589Z,969.01
2023-03-13T01:46:03.709Z,968.91
2023-03-13T01:46:34.875Z,968.91
2023-03-13T01:47:05.997Z,969.01
2023-03-13T01:47:36.108Z,969.01
2023-03-13T01:48:07.634Z,969.01
2023-03-13T01:48:38.085Z,969.01
2023-03-13T01:49:08.957Z,968.91
2023-03-13T01:49:41.051Z,968.91
2023-03-13T01:50:11.079Z,969.01
2023-03-13T01:50:43.258Z,969.01
2023-03-13T01:51:15.956Z,968.91
2023-03-13T01:51:45.120Z,968.91
2023-03-13T01:52:15.564Z,968.71
2023-03-13T01:52:46.563Z,968.71
2023-03-13T01:53:17.392Z,968.71
2023-03-13T01:53:48.266Z,968.91
2023-03-13T01:54:18.922Z,968.91
2023-03-13T01:54:50.434Z,968.81
2023-03-13T01:55:21.011Z,968.81
2023-03-13T01:55:52.876Z,968.61
2023-03-13T01:56:23.755Z,968.61
2023-03-13T01:56:55.120Z,968.81
2023-03-13T01:57:25.984Z,968.81
2023-03-13T01:57:56.716Z,968.61
2023-03-13T01:58:27.351Z,968.61
2023-03-13T01:58:57.909Z,968.71
2023-03-13T01:59:28.932Z,968.71
2023-03-13T02:00:00.198Z,968.71
2023-03-13T02:00:47.460Z,968.51
2023-03-13T02:01:17.476Z,968.51
2023-03-13T02:01:48.303Z,968.51
2023-03-13T02:02:19.048Z,968.51
2023-03-13T02:02:58.430Z,968.40
2023-03-13T02:03:21.443Z,968.40
2023-03-13T02:03:52.669Z,968.61
2023-03-13T02:04:42.016Z,968.61
2023-03-13T02:04:54.861Z,968.40
2023-03-13T02:05:26.122Z,968.40
2023-03-13T02:05:56.578Z,968.51
2023-03-13T02:06:28.144Z,968.51
2023-03-13T02:06:58.308Z,968.61
2023-03-13T02:07:29.987Z,968.61
2023-03-13T02:08:00.649Z,968.40
2023-03-13T02:10:49.532Z,968.40
2023-03-13T02:11:53.947Z,968.20
2023-03-13T02:12:08.547Z,968.51
2023-03-13T02:12:41.925Z,968.51
2023-03-13T02:13:11.332Z,968.30
2023-03-13T02:13:42.114Z,968.30
2023-03-13T02:14:13.525Z,968.30
2023-03-13T02:14:44.853Z,968.30
2023-03-13T02:15:14.990Z,968.30
2023-03-13T02:15:45.480Z,968.30
2023-03-13T02:16:16.714Z,968.20
2023-03-13T02:17:13.538Z,968.20
2023-03-13T02:17:18.167Z,968.20
2023-03-13T02:17:49.995Z,968.10
2023-03-13T02:18:39.280Z,968.10
2023-03-13T02:18:52.154Z,968.30
2023-03-13T02:19:34.846Z,968.30
2023-03-13T02:19:54.689Z,968.30
2023-03-13T02:21:26.299Z,968.30
2023-03-13T02:21:56.898Z,968.20
2023-03-13T02:22:27.986Z,968.20
2023-03-13T02:23:00.021Z,968.30
2023-03-13T02:23:31.296Z,968.30
2023-03-13T02:24:04.558Z,968.20
2023-03-13T02:24:37.492Z,968.20
2023-03-13T02:25:04.086Z,968.20
2023-03-13T02:25:35.234Z,968.20
2023-03-13T02:26:05.073Z,968.00
2023-03-13T02:26:42.516Z,968.00
2023-03-13T02:27:07.207Z,967.90
2023-03-13T02:27:37.765Z,967.90
2023-03-13T02:28:09.573Z,968.20
2023-03-13T02:28:41.410Z,968.20
2023-03-13T02:29:28.040Z,968.00
2023-03-13T02:29:43.319Z,968.00
2023-03-13T02:30:15.366Z,968.20
2023-03-13T02:30:52.842Z,968.20
2023-03-13T02:31:17.677Z,968.00
2023-03-13T02:31:47.813Z,968.00
2023-03-13T02:32:17.972Z,968.00
2023-03-13T02:32:49.415Z,968.00
2023-03-13T02:33:19.821Z,968.00
2023-03-13T02:33:50.901Z,967.90
2023-03-13T02:34:39.467Z,967.90
2023-03-13T02:34:52.583Z,968.00
2023-03-13T02:35:23.964Z,968.00
2023-03-13T02:35:54.231Z,967.79
2023-03-13T02:36:24.946Z,967.79
2023-03-13T02:36:57.395Z,967.90
2023-03-13T02:37:28.641Z,967.90
2023-03-13T02:38:00.379Z,967.79
2023-03-13T02:38:30.680Z,967.79
2023-03-13T02:39:04.939Z,968.00
2023-03-13T02:39:31.568Z,968.00
2023-03-13T02:40:03.067Z,967.90
2023-03-13T02:40:33.309Z,967.90
2023-03-13T02:41:11.446Z,968.00
2023-03-13T02:41:35.388Z,968.00
2023-03-13T02:42:06.805Z,967.90
2023-03-13T02:42:38.413Z,967.90
2023-03-13T02:43:10.720Z,967.90
2023-03-13T02:43:39.731Z,967.90
2023-03-13T02:44:10.340Z,967.69
2023-03-13T02:44:41.387Z,967.69
2023-03-13T02:45:14.401Z,967.79
2023-03-13T02:45:43.111Z,967.79
2023-03-13T02:46:14.082Z,967.79
2023-03-13T02:46:46.128Z,967.79
2023-03-13T02:47:16.984Z,967.49
2023-03-13T02:47:48.015Z,967.79
2023-03-13T02:48:18.941Z,967.79
2023-03-13T02:48:49.687Z,967.79
2023-03-13T02:49:20.891Z,967.79
2023-03-13T02:49:51.436Z,968.10
2023-03-13T02:50:22.345Z,968.10
2023-03-13T02:50:53.116Z,967.90
2023-03-13T02:51:23.944Z,967.90
2023-03-13T02:51:55.712Z,967.79
2023-03-13T02:52:27.112Z,967.79
2023-03-13T02:52:57.380Z,967.79
2023-03-13T02:53:29.205Z,967.79
2023-03-13T02:53:59.498Z,967.79
2023-03-13T02:54:30.560Z,967.79
2023-03-13T02:55:02.010Z,967.90
2023-03-13T02:55:32.402Z,967.90
2023-03-13T02:56:03.972Z,967.59
2023-03-13T02:56:34.147Z,967.59
2023-03-13T02:57:05.135Z,967.69
2023-03-13T02:57:36.922Z,967.69
2023-03-13T02:58:49.174Z,967.79
2023-03-13T02:59:10.303Z,967.90
2023-03-13T02:59:40.550Z,967.90
2023-03-13T03:00:12.548Z,967.59
2023-03-13T03:00:42.109Z,967.59
2023-03-13T03:01:13.082Z,967.79
2023-03-13T03:01:44.081Z,967.79
2023-03-13T03:02:18.376Z,967.69
2023-03-13T03:03:31.011Z,967.79
2023-03-13T03:03:50.198Z,967.69
2023-03-13T03:04:20.625Z,967.69
2023-03-13T03:04:50.769Z,967.90
2023-03-13T03:05:22.126Z,967.90
2023-03-13T03:05:52.287Z,967.79
2023-03-13T03:06:23.434Z,967.79
2023-03-13T03:06:54.121Z,967.79
2023-03-13T03:07:25.309Z,967.79
2023-03-13T03:07:57.162Z,967.69
2023-03-13T03:08:36.475Z,967.69
2023-03-13T03:09:00.508Z,967.79
2023-03-13T03:09:31.095Z,967.79
2023-03-13T03:10:01.354Z,967.69
2023-03-13T03:10:36.174Z,967.69
2023-03-13T03:11:16.531Z,967.59
2023-03-13T03:11:32.731Z,967.59
2023-03-13T03:12:04.170Z,967.69
2023-03-13T03:12:34.892Z,967.69
2023-03-13T03:13:06.424Z,967.49
2023-03-13T03:13:36.903Z,967.49
2023-03-13T03:14:09.018Z,967.49
2023-03-13T03:14:39.990Z,967.49
2023-03-13T03:15:11.503Z,967.59
2023-03-13T03:15:41.651Z,967.59
2023-03-13T03:16:12.270Z,967.29
2023-03-13T03:16:42.907Z,967.29
2023-03-13T03:17:14.043Z,967.29
2023-03-13T03:17:44.694Z,967.29
2023-03-13T03:18:16.070Z,967.39
2023-03-13T03:18:47.752Z,967.39
2023-03-13T03:19:18.695Z,967.39
2023-03-13T03:19:50.198Z,967.39
2023-03-13T03:20:21.093Z,967.39
2023-03-13T03:20:51.453Z,967.59
2023-03-13T03:21:21.815Z,967.59
2023-03-13T03:21:53.148Z,967.29
2023-03-13T03:22:23.825Z,967.29
2023-03-13T03:22:55.005Z,967.39
2023-03-13T03:23:25.805Z,967.39
2023-03-13T03:23:57.762Z,967.29
2023-03-13T03:24:29.043Z,967.29
2023-03-13T03:25:00.072Z,967.29
2023-03-13T03:25:30.851Z,967.29
2023-03-13T03:26:01.368Z,967.39
2023-03-13T03:26:32.135Z,967.39
2023-03-13T03:27:02.709Z,967.18
2023-03-13T03:27:33.799Z,967.18
2023-03-13T03:28:05.092Z,967.29
2023-03-13T03:28:44.634Z,967.29
2023-03-13T03:29:08.082Z,967.08
2023-03-13T03:29:39.009Z,967.08
2023-03-13T03:30:11.291Z,967.18
2023-03-13T03:30:40.902Z,967.18
2023-03-13T03:31:19.762Z,967.29
2023-03-13T03:31:58.180Z,967.29
2023-03-13T03:32:13.502Z,967.18
2023-03-13T03:32:44.972Z,967.18
2023-03-13T03:33:15.065Z,967.08
2023-03-13T03:33:45.682Z,967.02
2023-03-13T03:34:17.516Z,967.02
2023-03-13T03:34:48.682Z,967.08
2023-03-13T03:35:20.620Z,967.08
2023-03-13T03:35:51.469Z,967.18
2023-03-13T03:36:21.994Z,967.18
2023-03-13T03:36:53.192Z,967.18
2023-03-13T03:37:22.938Z,967.18
2023-03-13T03:37:54.010Z,967.08
2023-03-13T03:38:25.244Z,967.08
2023-03-13T03:38:55.850Z,967.18
2023-03-13T03:39:27.841Z,967.18
2023-03-13T03:39:58.968Z,967.39
2023-03-13T03:40:46.111Z,967.02
2023-03-13T03:41:01.499Z,967.02
2023-03-13T03:41:31.435Z,967.02
2023-03-13T03:42:03.281Z,967.18
2023-03-13T03:42:32.975Z,967.18
2023-03-13T03:43:03.978Z,967.08
2023-03-13T03:43:34.890Z,967.08
2023-03-13T03:44:06.054Z,967.29
2023-03-13T03:44:37.196Z,967.29
2023-03-13T03:45:10.337Z,966.91
2023-03-13T03:45:40.029Z,966.91
2023-03-13T03:46:11.234Z,967.02
2023-03-13T03:46:41.673Z,967.02
2023-03-13T03:47:12.732Z,967.08
2023-03-13T03:47:42.823Z,967.08
2023-03-13T03:48:14.337Z,967.02
2023-03-13T03:48:44.945Z,967.02
2023-03-13T03:49:16.248Z,967.02
2023-03-13T03:49:47.518Z,967.08
2023-03-13T03:50:19.054Z,967.08
2023-03-13T03:50:50.131Z,967.02
2023-03-13T03:51:20.595Z,967.02
2023-03-13T03:51:52.111Z,967.02
2023-03-13T03:52:22.181Z,967.02
2023-03-13T03:52:53.529Z,966.81
2023-03-13T03:53:24.376Z,966.81
2023-03-13T03:53:55.070Z,966.81
2023-03-13T03:54:25.760Z,966.81
2023-03-13T03:54:57.567Z,966.61
2023-03-13T03:55:28.870Z,966.61
2023-03-13T03:55:59.946Z,966.61
2023-03-13T03:56:30.902Z,966.61
2023-03-13T03:57:03.469Z,966.71
2023-03-13T03:57:32.323Z,966.71
2023-03-13T03:58:03.232Z,966.71
2023-03-13T03:58:34.670Z,966.71
2023-03-13T03:59:05.246Z,966.81
2023-03-13T03:59:35.995Z,966.81
2023-03-13T04:00:08.185Z,966.71
2023-03-13T04:00:39.130Z,966.71
2023-03-13T04:01:09.964Z,966.71
2023-03-13T04:01:41.188Z,966.71
2023-03-13T04:02:12.707Z,966.71
2023-03-13T04:02:42.654Z,966.71
2023-03-13T04:03:16.488Z,966.71
2023-03-13T04:03:43.768Z,966.71
2023-03-13T04:04:14.866Z,966.71
2023-03-13T04:04:46.457Z,966.71
2023-03-13T04:05:17.686Z,966.71
2023-03-13T04:05:49.286Z,966.61
2023-03-13T04:06:20.591Z,966.61
2023-03-13T04:06:51.683Z,966.61
2023-03-13T04:07:21.773Z,966.61
2023-03-13T04:07:52.487Z,966.61
2023-03-13T04:08:22.897Z,966.61
2023-03-13T04:08:58.329Z,966.51
2023-03-13T04:09:25.443Z,966.51
2023-03-13T04:09:56.711Z,966.61
2023-03-13T04:10:27.725Z,966.61
2023-03-13T04:10:58.904Z,966.51
2023-03-13T04:11:29.725Z,966.51
2023-03-13T04:12:01.392Z,966.61
2023-03-13T04:12:32.559Z,966.61
2023-03-13T04:13:39.085Z,966.61
2023-03-13T04:14:04.370Z,966.30
2023-03-13T04:14:35.297Z,966.30
2023-03-13T04:15:07.033Z,966.41
2023-03-13T04:15:38.096Z,966.41
2023-03-13T04:16:08.683Z,966.41
2023-03-13T04:16:39.981Z,966.41
2023-03-13T04:17:11.124Z,966.51
2023-03-13T04:17:41.682Z,966.51
2023-03-13T04:18:12.788Z,966.30
2023-03-13T04:18:43.132Z,966.30
2023-03-13T04:19:14.416Z,966.20
2023-03-13T04:19:45.745Z,966.20
2023-03-13T04:20:16.076Z,966.20
2023-03-13T04:20:47.914Z,966.30
2023-03-13T04:21:18.796Z,966.30
2023-03-13T04:21:50.012Z,966.10
2023-03-13T04:22:20.894Z,966.10
2023-03-13T04:22:52.038Z,966.10
2023-03-13T04:23:22.141Z,966.10
2023-03-13T04:23:53.216Z,966.10
2023-03-13T04:24:24.846Z,966.10
2023-03-13T04:24:55.233Z,966.10
2023-03-13T04:25:26.529Z,966.10
2023-03-13T04:25:57.875Z,966.10
2023-03-13T04:26:28.949Z,966.10
2023-03-13T04:27:00.150Z,966.20
2023-03-13T04:27:30.867Z,966.20
2023-03-13T04:28:01.679Z,966.00
2023-03-13T04:28:32.348Z,966.00
2023-03-13T04:29:03.065Z,966.30
2023-03-13T04:29:35.274Z,966.30
2023-03-13T04:30:08.444Z,966.00
2023-03-13T04:30:36.366Z,966.00
2023-03-13T04:31:07.479Z,966.00
2023-03-13T04:31:38.711Z,966.00
2023-03-13T04:32:10.680Z,966.10
2023-03-13T04:32:41.303Z,966.10
2023-03-13T04:33:12.629Z,966.00
2023-03-13T04:33:42.368Z,966.00
2023-03-13T04:34:13.644Z,966.00
2023-03-13T04:34:44.481Z,966.00
2023-03-13T04:35:15.576Z,965.90
2023-03-13T04:35:46.297Z,966.10
2023-03-13T04:36:17.094Z,966.10
2023-03-13T04:36:49.199Z,965.90
2023-03-13T04:37:20.265Z,965.90
2023-03-13T04:37:51.048Z,965.90
2023-03-13T04:38:21.876Z,965.90
2023-03-13T04:38:52.353Z,965.80
2023-03-13T04:39:23.595Z,965.80
2023-03-13T04:39:54.195Z,965.80
2023-03-13T04:40:25.400Z,965.80
2023-03-13T04:40:56.485Z,965.69
2023-03-13T04:41:26.792Z,965.69
2023-03-13T04:41:58.984Z,965.69
2023-03-13T04:42:29.940Z,965.69
2023-03-13T04:43:01.226Z,965.69
2023-03-13T04:43:31.969Z,965.69
2023-03-13T04:44:03.686Z,965.59
2023-03-13T04:44:33.322Z,965.59
2023-03-13T04:45:06.112Z,965.69
2023-03-13T04:46:07.463Z,965.59
2023-03-13T04:46:37.240Z,965.59
2023-03-13T04:47:08.396Z,965.59
2023-03-13T04:47:39.865Z,965.59
2023-03-13T04:48:11.376Z,965.80
2023-03-13T04:48:42.198Z,965.80
2023-03-13T04:49:13.022Z,965.69
2023-03-13T04:49:43.152Z,965.69
2023-03-13T04:50:15.346Z,965.49
2023-03-13T04:50:45.362Z,965.49
2023-03-13T04:51:16.113Z,965.59
2023-03-13T04:51:48.277Z,965.49
2023-03-13T04:52:18.938Z,965.49
2023-03-13T04:52:50.671Z,965.39
2023-03-13T04:53:21.617Z,965.39
2023-03-13T04:53:52.186Z,965.59
2023-03-13T04:54:23.027Z,965.59
2023-03-13T04:54:53.040Z,965.69
2023-03-13T04:55:33.104Z,965.69
2023-03-13T04:55:55.245Z,965.39
2023-03-13T04:56:41.614Z,965.39
2023-03-13T04:56:57.466Z,965.59
2023-03-13T04:57:28.618Z,965.59
2023-03-13T04:58:00.061Z,965.39
2023-03-13T04:58:31.190Z,965.39
2023-03-13T04:59:02.151Z,965.39
2023-03-13T04:59:32.681Z,965.39
2023-03-13T05:00:07.521Z,965.39
2023-03-13T05:00:34.192Z,965.39
2023-03-13T05:01:05.327Z,965.39
2023-03-13T05:01:36.153Z,965.39
2023-03-13T05:02:07.237Z,965.29
2023-03-13T05:02:40.655Z,965.29
2023-03-13T05:03:09.560Z,965.49
2023-03-13T05:03:40.974Z,965.49
2023-03-13T05:04:12.632Z,965.49
2023-03-13T05:05:00.348Z,965.59
2023-03-13T05:05:15.070Z,965.59
2023-03-13T05:05:45.257Z,965.59
2023-03-13T05:06:15.912Z,965.39
2023-03-13T05:06:46.829Z,965.29
2023-03-13T05:07:17.800Z,965.29
2023-03-13T05:07:49.495Z,965.19
2023-03-13T05:08:20.002Z,965.19
2023-03-13T05:08:50.890Z,965.39
2023-03-13T05:09:21.652Z,965.39
2023-03-13T05:09:52.089Z,965.39
2023-03-13T05:10:24.081Z,965.39
2023-03-13T05:10:54.651Z,965.49
2023-03-13T05:11:25.247Z,965.49
2023-03-13T05:11:58.187Z,965.29
2023-03-13T05:12:27.168Z,965.29
2023-03-13T05:12:59.485Z,965.19
2023-03-13T05:13:30.420Z,965.19
2023-03-13T05:14:06.580Z,965.19
2023-03-13T05:14:37.211Z,965.19
2023-03-13T05:15:03.760Z,965.09
2023-03-13T05:15:34.831Z,965.09
2023-03-13T05:16:05.548Z,964.88
2023-03-13T05:16:36.535Z,964.88
2023-03-13T05:17:06.337Z,964.88
2023-03-13T05:17:37.548Z,964.88
2023-03-13T05:18:09.105Z,964.98
2023-03-13T05:18:40.513Z,964.98
2023-03-13T05:19:11.695Z,964.81
2023-03-13T05:19:42.509Z,964.81
2023-03-13T05:20:14.132Z,964.98
2023-03-13T05:20:43.205Z,964.98
2023-03-13T05:21:14.877Z,964.81
2023-03-13T05:21:46.156Z,964.81
2023-03-13T05:22:16.100Z,964.81
2023-03-13T05:22:47.274Z,964.81
2023-03-13T05:23:18.868Z,964.81
2023-03-13T05:24:02.484Z,964.81
2023-03-13T05:24:21.462Z,964.81
2023-03-13T05:25:23.174Z,964.81
2023-03-13T05:25:53.697Z,964.88
2023-03-13T05:26:24.384Z,964.88
2023-03-13T05:26:55.319Z,964.81
2023-03-13T05:27:26.863Z,964.81
2023-03-13T05:28:02.874Z,964.81
2023-03-13T05:28:29.294Z,964.81
2023-03-13T05:29:00.595Z,964.71
2023-03-13T05:29:31.173Z,964.71
2023-03-13T05:30:02.987Z,964.88
2023-03-13T05:30:32.990Z,964.88
2023-03-13T05:31:04.267Z,964.88
2023-03-13T05:31:35.357Z,964.88
2023-03-13T05:32:05.831Z,964.61
2023-03-13T05:32:36.585Z,964.61
2023-03-13T05:33:08.021Z,964.81
2023-03-13T05:33:38.274Z,964.81
2023-03-13T05:34:11.102Z,964.71
2023-03-13T05:34:41.507Z,964.71
2023-03-13T05:35:12.863Z,964.71
2023-03-13T05:35:43.362Z,964.71
2023-03-13T05:36:14.253Z,964.61
2023-03-13T05:36:45.113Z,964.61
2023-03-13T05:37:15.518Z,964.71
2023-03-13T05:37:46.578Z,964.61
2023-03-13T05:38:18.089Z,964.61
2023-03-13T05:39:20.302Z,964.41
2023-03-13T05:39:50.662Z,964.41
2023-03-13T05:40:23.219Z,964.41
2023-03-13T05:40:53.126Z,964.61
2023-03-13T05:41:24.036Z,964.61
2023-03-13T05:41:55.024Z,964.51
2023-03-13T05:42:26.081Z,964.51
2023-03-13T05:42:56.505Z,964.51
2023-03-13T05:43:27.330Z,964.51
2023-03-13T05:44:00.044Z,964.61
2023-03-13T05:44:30.644Z,964.61
2023-03-13T05:45:02.264Z,964.71
2023-03-13T05:45:31.438Z,964.71
2023-03-13T05:46:02.634Z,964.88
2023-03-13T05:46:33.274Z,964.88
2023-03-13T05:47:05.436Z,964.61
2023-03-13T05:47:35.440Z,964.61
2023-03-13T05:48:07.204Z,964.71
2023-03-13T05:48:37.320Z,964.71
2023-03-13T05:49:09.240Z,964.61
2023-03-13T05:49:40.148Z,964.61
2023-03-13T05:50:11.973Z,964.41
2023-03-13T05:50:42.026Z,964.41
2023-03-13T05:51:13.148Z,964.51
2023-03-13T05:51:44.076Z,964.51
2023-03-13T05:52:14.662Z,964.71
2023-03-13T05:52:45.454Z,964.71
2023-03-13T05:53:16.415Z,964.61
2023-03-13T05:53:47.279Z,964.51
2023-03-13T05:54:19.310Z,964.51
2023-03-13T05:54:50.510Z,964.61
2023-03-13T05:55:21.119Z,964.61
2023-03-13T05:55:51.895Z,964.71
2023-03-13T05:56:22.254Z,964.71
2023-03-13T05:56:53.048Z,964.51
2023-03-13T05:57:24.724Z,964.51
2023-03-13T05:57:56.018Z,964.41
2023-03-13T05:58:26.508Z,964.41
2023-03-13T05:58:58.643Z,964.31
2023-03-13T05:59:29.278Z,964.31
2023-03-13T06:00:01.028Z,964.31
2023-03-13T06:00:36.720Z,964.31
2023-03-13T06:01:01.656Z,964.41
2023-03-13T06:01:39.172Z,964.41
2023-03-13T06:02:03.214Z,964.61
2023-03-13T06:03:05.978Z,964.31
2023-03-13T06:03:36.120Z,964.31
2023-03-13T06:04:09.115Z,964.31
2023-03-13T06:04:39.288Z,964.31
2023-03-13T06:05:10.945Z,964.10
2023-03-13T06:05:40.458Z,964.10
2023-03-13T06:06:11.328Z,964.10
2023-03-13T06:06:42.197Z,964.10
2023-03-13T06:07:13.382Z,964.20
2023-03-13T06:07:44.369Z,964.20
2023-03-13T06:08:15.428Z,964.20
2023-03-13T06:08:46.230Z,964.31
2023-03-13T06:09:35.473Z,964.31
2023-03-13T06:09:49.259Z,964.20
2023-03-13T06:10:20.483Z,964.20
2023-03-13T06:10:51.047Z,964.10
2023-03-13T06:11:52.361Z,964.00
2023-03-13T06:12:23.116Z,964.00
2023-03-13T06:12:54.565Z,964.00
2023-03-13T06:13:25.587Z,964.00
2023-03-13T06:13:56.663Z,964.00
2023-03-13T06:14:28.106Z,964.00
2023-03-13T06:14:59.926Z,964.20
2023-03-13T06:18:19.500Z,964.20
2023-03-13T06:18:35.935Z,964.10
2023-03-13T06:19:09.473Z,963.90
2023-03-13T06:19:39.521Z,963.90
2023-03-13T06:20:11.091Z,963.90
2023-03-13T06:20:42.313Z,963.90
2023-03-13T06:21:10.977Z,963.90
2023-03-13T06:21:41.891Z,963.90
2023-03-13T06:22:12.195Z,964.00
2023-03-13T06:22:43.178Z,964.00
2023-03-13T06:23:14.729Z,963.80
2023-03-13T06:24:16.281Z,964.00
2023-03-13T06:24:47.376Z,964.10
2023-03-13T06:25:19.749Z,964.10
2023-03-13T06:25:50.132Z,964.00
2023-03-13T06:26:20.910Z,964.00
2023-03-13T06:27:22.387Z,963.90
2023-03-13T06:27:53.328Z,963.90
2023-03-13T06:28:24.121Z,963.90
2023-03-13T06:28:55.559Z,964.10
2023-03-13T06:29:26.825Z,964.10
2023-03-13T06:30:06.321Z,964.31
2023-03-13T06:30:29.426Z,964.31
2023-03-13T06:31:46.427Z,964.31
2023-03-13T06:32:02.010Z,964.20
2023-03-13T06:32:32.359Z,964.20
2023-03-13T06:33:03.317Z,964.41
2023-03-13T06:33:34.140Z,964.41
2023-03-13T06:34:04.958Z,964.10
2023-03-13T06:34:36.082Z,964.10
2023-03-13T06:35:08.018Z,964.10
2023-03-13T06:35:54.777Z,964.10
2023-03-13T06:36:11.156Z,964.41
2023-03-13T06:37:11.864Z,964.41
2023-03-13T06:37:42.606Z,964.41
2023-03-13T06:38:13.260Z,964.31
2023-03-13T06:38:44.277Z,964.31
2023-03-13T06:39:15.622Z,964.51
2023-03-13T06:39:46.503Z,964.41
2023-03-13T06:40:19.188Z,964.41
2023-03-13T06:41:05.659Z,964.41
2023-03-13T06:41:20.467Z,964.41
2023-03-13T06:41:51.427Z,964.31
2023-03-13T06:42:21.678Z,964.31
2023-03-13T06:42:53.075Z,964.31
2023-03-13T06:43:23.316Z,964.31
2023-03-13T06:44:25.207Z,964.31
2023-03-13T06:44:56.339Z,964.41